sensor_id;sensor_type;location;lat;lon;timestamp;temperature;humidity
42147;DHT22;27815;43.410;11.852;2023-04-19T00:01:51;13.20;58.50
42147;DHT22;27815;43.410;11.852;2023-04-19T00:06:29;13.10;58.50
42147;DHT22;27815;43.410;11.852;2023-04-19T00:10:55;12.80;58.70
42147;DHT22;27815;43.410;11.852;2023-04-19T00:15:13;12.60;59.00
42147;DHT22;27815;43.410;11.852;2023-04-19T00:19:31;12.50;59.00
42147;DHT22;27815;43.410;11.852;2023-04-19T00:33:13;11.90;60.00
42147;DHT22;27815;43.410;11.852;2023-04-19T00:37:32;11.60;60.30
42147;DHT22;27815;43.410;11.852;2023-04-19T00:41:49;11.50;60.30
42147;DHT22;27815;43.410;11.852;2023-04-19T00:46:08;11.30;60.50
42147;DHT22;27815;43.410;11.852;2023-04-19T00:50:27;11.20;60.70
42147;DHT22;27815;43.410;11.852;2023-04-19T00:54:48;11.10;60.90
42147;DHT22;27815;43.410;11.852;2023-04-19T00:59:25;11.00;61.00
42147;DHT22;27815;43.410;11.852;2023-04-19T01:03:46;10.90;61.20
42147;DHT22;27815;43.410;11.852;2023-04-19T01:08:07;10.90;61.30
42147;DHT22;27815;43.410;11.852;2023-04-19T01:12:32;10.80;61.60
42147;DHT22;27815;43.410;11.852;2023-04-19T01:17:09;10.70;62.00
42147;DHT22;27815;43.410;11.852;2023-04-19T01:21:35;10.60;62.60
42147;DHT22;27815;43.410;11.852;2023-04-19T01:25:57;10.60;62.50
42147;DHT22;27815;43.410;11.852;2023-04-19T01:30:11;10.50;62.30
42147;DHT22;27815;43.410;11.852;2023-04-19T01:34:30;10.50;62.70
42147;DHT22;27815;43.410;11.852;2023-04-19T01:38:52;10.40;62.90
42147;DHT22;27815;43.410;11.852;2023-04-19T01:43:15;10.40;63.30
42147;DHT22;27815;43.410;11.852;2023-04-19T01:47:50;10.20;64.00
42147;DHT22;27815;43.410;11.852;2023-04-19T01:52:28;10.20;64.50
42147;DHT22;27815;43.410;11.852;2023-04-19T01:56:48;10.20;64.50
42147;DHT22;27815;43.410;11.852;2023-04-19T02:01:26;10.30;64.40
42147;DHT22;27815;43.410;11.852;2023-04-19T02:05:57;10.30;64.20
42147;DHT22;27815;43.410;11.852;2023-04-19T02:10:26;10.50;64.10
42147;DHT22;27815;43.410;11.852;2023-04-19T02:14:45;10.80;63.90
42147;DHT22;27815;43.410;11.852;2023-04-19T02:19:10;11.00;63.60
42147;DHT22;27815;43.410;11.852;2023-04-19T02:23:31;11.20;63.50
42147;DHT22;27815;43.410;11.852;2023-04-19T02:27:42;11.40;63.40
42147;DHT22;27815;43.410;11.852;2023-04-19T02:32:05;11.50;63.20
42147;DHT22;27815;43.410;11.852;2023-04-19T02:36:28;11.60;63.00
42147;DHT22;27815;43.410;11.852;2023-04-19T02:40:48;11.80;62.90
42147;DHT22;27815;43.410;11.852;2023-04-19T02:45:25;12.00;62.80
42147;DHT22;27815;43.410;11.852;2023-04-19T02:50:03;12.00;62.60
42147;DHT22;27815;43.410;11.852;2023-04-19T02:55:02;12.00;62.60
42147;DHT22;27815;43.410;11.852;2023-04-19T02:59:43;11.90;62.60
42147;DHT22;27815;43.410;11.852;2023-04-19T03:04:02;11.80;62.50
42147;DHT22;27815;43.410;11.852;2023-04-19T03:08:19;11.80;62.60
42147;DHT22;27815;43.410;11.852;2023-04-19T03:12:24;11.90;62.70
42147;DHT22;27815;43.410;11.852;2023-04-19T03:16:41;12.00;62.50
42147;DHT22;27815;43.410;11.852;2023-04-19T03:21:02;12.00;62.50
42147;DHT22;27815;43.410;11.852;2023-04-19T03:25:27;12.10;62.60
42147;DHT22;27815;43.410;11.852;2023-04-19T03:30:11;12.10;62.60
42147;DHT22;27815;43.410;11.852;2023-04-19T03:34:31;12.20;62.50
42147;DHT22;27815;43.410;11.852;2023-04-19T03:39:16;12.20;62.50
42147;DHT22;27815;43.410;11.852;2023-04-19T03:43:40;12.20;62.40
42147;DHT22;27815;43.410;11.852;2023-04-19T03:48:27;12.30;62.40
42147;DHT22;27815;43.410;11.852;2023-04-19T03:52:51;12.40;62.40
42147;DHT22;27815;43.410;11.852;2023-04-19T03:57:12;12.40;62.40
42147;DHT22;27815;43.410;11.852;2023-04-19T04:01:32;12.50;62.30
42147;DHT22;27815;43.410;11.852;2023-04-19T04:06:10;12.50;62.10
42147;DHT22;27815;43.410;11.852;2023-04-19T04:10:35;12.60;62.00
42147;DHT22;27815;43.410;11.852;2023-04-19T04:19:47;12.50;61.90
42147;DHT22;27815;43.410;11.852;2023-04-19T04:24:25;12.10;62.00
42147;DHT22;27815;43.410;11.852;2023-04-19T04:29:05;12.00;62.20
42147;DHT22;27815;43.410;11.852;2023-04-19T04:33:24;12.00;62.30
42147;DHT22;27815;43.410;11.852;2023-04-19T04:37:28;11.90;62.30
42147;DHT22;27815;43.410;11.852;2023-04-19T04:41:33;11.80;62.40
42147;DHT22;27815;43.410;11.852;2023-04-19T04:45:38;11.60;62.90
42147;DHT22;27815;43.410;11.852;2023-04-19T04:49:45;11.50;63.30
42147;DHT22;27815;43.410;11.852;2023-04-19T04:54:01;11.50;63.20
42147;DHT22;27815;43.410;11.852;2023-04-19T04:58:18;11.50;63.30
42147;DHT22;27815;43.410;11.852;2023-04-19T05:02:39;11.50;63.20
42147;DHT22;27815;43.410;11.852;2023-04-19T05:30:53;11.40;63.90
42147;DHT22;27815;43.410;11.852;2023-04-19T05:39:38;11.50;63.90
42147;DHT22;27815;43.410;11.852;2023-04-19T05:43:55;11.50;64.30
42147;DHT22;27815;43.410;11.852;2023-04-19T05:48:12;11.50;64.20
42147;DHT22;27815;43.410;11.852;2023-04-19T05:52:31;11.50;64.20
42147;DHT22;27815;43.410;11.852;2023-04-19T05:56:39;11.50;64.30
42147;DHT22;27815;43.410;11.852;2023-04-19T06:00:56;11.30;64.50
42147;DHT22;27815;43.410;11.852;2023-04-19T06:05:26;11.30;64.60
42147;DHT22;27815;43.410;11.852;2023-04-19T06:09:44;11.50;64.50
42147;DHT22;27815;43.410;11.852;2023-04-19T06:14:03;11.90;64.10
42147;DHT22;27815;43.410;11.852;2023-04-19T06:18:23;12.30;63.80
42147;DHT22;27815;43.410;11.852;2023-04-19T06:22:26;12.70;63.60
42147;DHT22;27815;43.410;11.852;2023-04-19T06:26:28;12.90;63.30
42147;DHT22;27815;43.410;11.852;2023-04-19T06:30:31;13.00;63.40
42147;DHT22;27815;43.410;11.852;2023-04-19T06:34:34;13.40;63.10
42147;DHT22;27815;43.410;11.852;2023-04-19T06:38:37;13.60;62.80
42147;DHT22;27815;43.410;11.852;2023-04-19T06:42:40;14.00;62.70
42147;DHT22;27815;43.410;11.852;2023-04-19T06:46:42;14.30;62.50
42147;DHT22;27815;43.410;11.852;2023-04-19T06:50:45;14.50;62.00
42147;DHT22;27815;43.410;11.852;2023-04-19T06:54:48;14.70;61.70
42147;DHT22;27815;43.410;11.852;2023-04-19T06:58:51;14.90;61.60
42147;DHT22;27815;43.410;11.852;2023-04-19T07:02:53;15.20;61.30
42147;DHT22;27815;43.410;11.852;2023-04-19T07:06:56;15.40;61.00
42147;DHT22;27815;43.410;11.852;2023-04-19T07:10:59;15.70;60.50
42147;DHT22;27815;43.410;11.852;2023-04-19T07:15:01;16.10;60.10
42147;DHT22;27815;43.410;11.852;2023-04-19T07:19:05;16.50;59.50
42147;DHT22;27815;43.410;11.852;2023-04-19T07:23:07;16.70;59.10
42147;DHT22;27815;43.410;11.852;2023-04-19T07:27:10;16.80;58.90
42147;DHT22;27815;43.410;11.852;2023-04-19T07:31:14;16.70;59.00
42147;DHT22;27815;43.410;11.852;2023-04-19T07:35:17;16.90;59.00
42147;DHT22;27815;43.410;11.852;2023-04-19T07:39:20;16.90;58.80
42147;DHT22;27815;43.410;11.852;2023-04-19T07:43:23;17.00;58.70
42147;DHT22;27815;43.410;11.852;2023-04-19T07:47:26;17.10;58.30
42147;DHT22;27815;43.410;11.852;2023-04-19T07:51:53;17.30;58.00
42147;DHT22;27815;43.410;11.852;2023-04-19T07:56:14;17.70;57.40
42147;DHT22;27815;43.410;11.852;2023-04-19T08:00:18;18.00;57.10
42147;DHT22;27815;43.410;11.852;2023-04-19T08:04:35;18.20;56.50
42147;DHT22;27815;43.410;11.852;2023-04-19T08:08:48;18.30;56.30
42147;DHT22;27815;43.410;11.852;2023-04-19T08:12:58;18.50;55.70
42147;DHT22;27815;43.410;11.852;2023-04-19T08:26:35;18.90;54.20
42147;DHT22;27815;43.410;11.852;2023-04-19T08:31:22;19.10;54.00
42147;DHT22;27815;43.410;11.852;2023-04-19T08:35:43;19.30;53.40
42147;DHT22;27815;43.410;11.852;2023-04-19T08:57:12;19.60;52.10
42147;DHT22;27815;43.410;11.852;2023-04-19T09:01:42;19.80;52.00
42147;DHT22;27815;43.410;11.852;2023-04-19T09:06:02;19.70;52.50
42147;DHT22;27815;43.410;11.852;2023-04-19T09:10:28;19.70;52.10
42147;DHT22;27815;43.410;11.852;2023-04-19T09:14:45;19.70;51.90
42147;DHT22;27815;43.410;11.852;2023-04-19T09:19:24;19.50;51.80
42147;DHT22;27815;43.410;11.852;2023-04-19T09:23:45;19.50;51.80
42147;DHT22;27815;43.410;11.852;2023-04-19T09:28:09;19.50;51.70
42147;DHT22;27815;43.410;11.852;2023-04-19T09:32:43;19.30;51.90
42147;DHT22;27815;43.410;11.852;2023-04-19T09:37:12;19.10;52.20
42147;DHT22;27815;43.410;11.852;2023-04-19T09:41:34;18.80;52.60
42147;DHT22;27815;43.410;11.852;2023-04-19T09:45:58;18.60;53.10
42147;DHT22;27815;43.410;11.852;2023-04-19T09:50:18;18.70;52.60
42147;DHT22;27815;43.410;11.852;2023-04-19T09:55:05;18.60;52.60
42147;DHT22;27815;43.410;11.852;2023-04-19T10:00:23;18.60;52.70
42147;DHT22;27815;43.410;11.852;2023-04-19T10:04:42;19.00;52.00
42147;DHT22;27815;43.410;11.852;2023-04-19T10:09:02;19.10;51.80
42147;DHT22;27815;43.410;11.852;2023-04-19T10:13:21;19.30;51.10
42147;DHT22;27815;43.410;11.852;2023-04-19T10:17:43;19.50;50.70
42147;DHT22;27815;43.410;11.852;2023-04-19T10:22:10;19.90;50.70
42147;DHT22;27815;43.410;11.852;2023-04-19T10:26:29;20.10;50.40
42147;DHT22;27815;43.410;11.852;2023-04-19T10:30:52;20.30;50.40
42147;DHT22;27815;43.410;11.852;2023-04-19T10:35:33;20.50;50.00
42147;DHT22;27815;43.410;11.852;2023-04-19T10:40:08;20.50;48.40
42147;DHT22;27815;43.410;11.852;2023-04-19T10:49:43;20.50;47.90
42147;DHT22;27815;43.410;11.852;2023-04-19T10:59:10;20.80;47.10
42147;DHT22;27815;43.410;11.852;2023-04-19T11:03:50;21.00;46.60
42147;DHT22;27815;43.410;11.852;2023-04-19T11:08:21;20.90;46.00
42147;DHT22;27815;43.410;11.852;2023-04-19T11:13:00;20.90;46.40
42147;DHT22;27815;43.410;11.852;2023-04-19T11:17:24;20.90;47.00
42147;DHT22;27815;43.410;11.852;2023-04-19T11:22:15;20.90;46.60
42147;DHT22;27815;43.410;11.852;2023-04-19T11:45:49;21.30;46.90
42147;DHT22;27815;43.410;11.852;2023-04-19T12:05:05;21.60;45.90
42147;DHT22;27815;43.410;11.852;2023-04-19T12:20:08;21.60;44.10
42147;DHT22;27815;43.410;11.852;2023-04-19T12:24:53;21.50;43.40
42147;DHT22;27815;43.410;11.852;2023-04-19T13:57:22;20.60;43.80
42147;DHT22;27815;43.410;11.852;2023-04-19T14:21:33;18.10;51.90
42147;DHT22;27815;43.410;11.852;2023-04-19T16:01:27;15.10;64.60
42147;DHT22;27815;43.410;11.852;2023-04-19T16:05:44;15.00;65.10
42147;DHT22;27815;43.410;11.852;2023-04-19T16:10:42;15.00;65.50
42147;DHT22;27815;43.410;11.852;2023-04-19T16:15:28;14.80;65.80
42147;DHT22;27815;43.410;11.852;2023-04-19T16:20:08;14.70;66.30
42147;DHT22;27815;43.410;11.852;2023-04-19T16:24:26;14.60;66.30
42147;DHT22;27815;43.410;11.852;2023-04-19T16:33:44;14.50;66.10
42147;DHT22;27815;43.410;11.852;2023-04-19T16:52:18;14.30;68.20
42147;DHT22;27815;43.410;11.852;2023-04-19T16:56:40;14.30;67.60
42147;DHT22;27815;43.410;11.852;2023-04-19T17:00:59;14.20;67.40
42147;DHT22;27815;43.410;11.852;2023-04-19T17:05:39;14.20;67.90
42147;DHT22;27815;43.410;11.852;2023-04-19T17:24:36;14.00;68.90
42147;DHT22;27815;43.410;11.852;2023-04-19T17:38:46;14.00;68.80
42147;DHT22;27815;43.410;11.852;2023-04-19T18:01:29;14.00;69.30
42147;DHT22;27815;43.410;11.852;2023-04-19T18:05:48;13.90;69.70
42147;DHT22;27815;43.410;11.852;2023-04-19T18:10:09;13.80;70.00
42147;DHT22;27815;43.410;11.852;2023-04-19T18:14:34;13.80;70.30
42147;DHT22;27815;43.410;11.852;2023-04-19T18:18:58;13.80;70.20
42147;DHT22;27815;43.410;11.852;2023-04-19T18:23:16;13.80;70.00
42147;DHT22;27815;43.410;11.852;2023-04-19T18:28:06;13.80;70.00
42147;DHT22;27815;43.410;11.852;2023-04-19T18:32:26;13.70;70.60
42147;DHT22;27815;43.410;11.852;2023-04-19T18:37:01;13.70;71.10
42147;DHT22;27815;43.410;11.852;2023-04-19T18:45:52;13.50;71.90
42147;DHT22;27815;43.410;11.852;2023-04-19T18:50:10;13.50;72.20
42147;DHT22;27815;43.410;11.852;2023-04-19T18:54:27;13.50;72.60
42147;DHT22;27815;43.410;11.852;2023-04-19T18:58:44;13.50;72.60
42147;DHT22;27815;43.410;11.852;2023-04-19T19:03:01;13.60;72.70
42147;DHT22;27815;43.410;11.852;2023-04-19T19:07:19;13.50;73.10
42147;DHT22;27815;43.410;11.852;2023-04-19T19:11:38;13.50;73.30
42147;DHT22;27815;43.410;11.852;2023-04-19T19:16:04;13.60;73.20
42147;DHT22;27815;43.410;11.852;2023-04-19T19:20:43;13.60;73.30
42147;DHT22;27815;43.410;11.852;2023-04-19T19:25:01;13.60;73.30
42147;DHT22;27815;43.410;11.852;2023-04-19T19:29:26;13.60;73.10
42147;DHT22;27815;43.410;11.852;2023-04-19T19:33:44;13.60;73.30
42147;DHT22;27815;43.410;11.852;2023-04-19T19:38:08;13.60;73.30
42147;DHT22;27815;43.410;11.852;2023-04-19T19:42:25;13.50;73.10
42147;DHT22;27815;43.410;11.852;2023-04-19T19:46:45;13.50;73.30
42147;DHT22;27815;43.410;11.852;2023-04-19T19:51:06;13.50;73.10
42147;DHT22;27815;43.410;11.852;2023-04-19T19:55:24;13.50;72.90
42147;DHT22;27815;43.410;11.852;2023-04-19T19:59:43;13.50;72.80
42147;DHT22;27815;43.410;11.852;2023-04-19T20:04:01;13.50;72.50
42147;DHT22;27815;43.410;11.852;2023-04-19T20:08:23;13.40;72.50
42147;DHT22;27815;43.410;11.852;2023-04-19T20:12:42;13.20;72.90
42147;DHT22;27815;43.410;11.852;2023-04-19T20:16:59;13.10;73.60
42147;DHT22;27815;43.410;11.852;2023-04-19T20:21:42;13.00;74.20
42147;DHT22;27815;43.410;11.852;2023-04-19T20:44:32;13.20;72.70
42147;DHT22;27815;43.410;11.852;2023-04-19T20:48:56;13.20;72.40
42147;DHT22;27815;43.410;11.852;2023-04-19T20:53:14;13.20;72.20
42147;DHT22;27815;43.410;11.852;2023-04-19T20:57:52;13.10;72.20
42147;DHT22;27815;43.410;11.852;2023-04-19T21:02:10;13.10;72.10
42147;DHT22;27815;43.410;11.852;2023-04-19T21:06:28;13.00;71.90
42147;DHT22;27815;43.410;11.852;2023-04-19T21:10:47;12.80;71.90
42147;DHT22;27815;43.410;11.852;2023-04-19T21:15:06;12.70;71.90
42147;DHT22;27815;43.410;11.852;2023-04-19T21:19:43;12.70;71.80
42147;DHT22;27815;43.410;11.852;2023-04-19T21:24:03;12.70;71.70
42147;DHT22;27815;43.410;11.852;2023-04-19T21:47:24;12.50;71.50
42147;DHT22;27815;43.410;11.852;2023-04-19T21:51:46;12.50;71.50
42147;DHT22;27815;43.410;11.852;2023-04-19T21:56:05;12.50;71.50
42147;DHT22;27815;43.410;11.852;2023-04-19T22:01:01;12.50;71.40
42147;DHT22;27815;43.410;11.852;2023-04-19T22:05:34;12.50;71.30
42147;DHT22;27815;43.410;11.852;2023-04-19T22:09:52;12.50;71.30
42147;DHT22;27815;43.410;11.852;2023-04-19T22:14:12;12.50;71.30
42147;DHT22;27815;43.410;11.852;2023-04-19T22:18:50;12.40;71.40
42147;DHT22;27815;43.410;11.852;2023-04-19T22:23:09;12.40;71.50
42147;DHT22;27815;43.410;11.852;2023-04-19T22:27:33;12.40;71.50
42147;DHT22;27815;43.410;11.852;2023-04-19T22:36:47;12.40;71.60
42147;DHT22;27815;43.410;11.852;2023-04-19T22:41:06;12.30;71.90
42147;DHT22;27815;43.410;11.852;2023-04-19T22:45:24;12.30;72.10
42147;DHT22;27815;43.410;11.852;2023-04-19T22:49:49;12.20;72.30
42147;DHT22;27815;43.410;11.852;2023-04-19T23:08:29;12.00;73.70
42147;DHT22;27815;43.410;11.852;2023-04-19T23:31:40;12.00;73.40
42147;DHT22;27815;43.410;11.852;2023-04-19T23:46:20;12.00;73.40
42147;DHT22;27815;43.410;11.852;2023-04-19T23:51:01;12.00;73.40
